Portway Acres, Texas
Current Conditions -  °F | °C
As of 2:07 AM on Friday 21 Nov 2014 (Local Time) from KBRO Reporting Station
Overcast Overcast  
Wind Chill: 69°   Ceiling: 3600
Heat Index: 69°   Visibility: 8mi
Dew Point: 68°   Wind: 6mph
Humidity: 96%   Direction: 180°S
Pressure: 30.03"   Gusts: NA
Location:  26.0002°N, 97.5729°W
Report Text: KBRO 210807Z 18005KT 8SM FEW024 BKN036 OVC043 21/20 A3003 RMK AO2 T02060200
Loading
Personal Weather Stations






























Interactive Weather Map New forecast layout! Learn more

10-Day Weather Forecast

Advertisements
Track Severe Weather on mobile